Time,TemperatureF,DewpointF,PressureIn,WindDirection,WindDirectionDegrees,WindSpeedMPH,WindSpeedGustMPH,Humidity,HourlyPrecipIn,Conditions,Clouds,dailyrainin,SoftwareType,DateUTC
2013-11-12 00:01:00,51.5,40.0,29.79,WNW,292,7.0,11.0,64,0.00,,,0.00,Rainwise IP-100,2013-11-12 05:01:00,
2013-11-12 00:06:00,51.5,40.0,29.78,SW,225,4.0,14.0,63,0.00,,,0.00,Rainwise IP-100,2013-11-12 05:06:00,
2013-11-12 00:11:00,51.4,39.0,29.79,West,270,5.0,9.0,63,0.00,,,0.00,Rainwise IP-100,2013-11-12 05:11:00,
2013-11-12 00:16:00,51.4,39.0,29.78,WSW,247,5.0,10.0,63,0.00,,,0.00,Rainwise IP-100,2013-11-12 05:16:00,
2013-11-12 00:21:00,51.5,40.0,29.78,West,270,6.0,10.0,63,0.00,,,0.00,Rainwise IP-100,2013-11-12 05:21:00,
2013-11-12 00:26:00,51.4,39.0,29.78,WSW,247,7.0,10.0,62,0.00,,,0.00,Rainwise IP-100,2013-11-12 05:26:00,
2013-11-12 00:31:00,51.4,39.0,29.78,WSW,247,6.0,9.0,62,0.00,,,0.00,Rainwise IP-100,2013-11-12 05:31:00,
2013-11-12 00:36:00,51.3,39.0,29.78,West,270,7.0,7.0,62,0.00,,,0.00,Rainwise IP-100,2013-11-12 05:36:00,
2013-11-12 00:41:00,51.2,39.0,29.79,West,270,4.0,8.0,62,0.00,,,0.00,Rainwise IP-100,2013-11-12 05:41:00,
2013-11-12 00:46:00,51.2,38.0,29.79,West,270,9.0,11.0,61,0.00,,,0.00,Rainwise IP-100,2013-11-12 05:46:00,
2013-11-12 00:51:00,51.2,39.0,29.79,West,270,7.0,10.0,62,0.00,,,0.00,Rainwise IP-100,2013-11-12 05:51:00,
2013-11-12 00:56:00,51.2,38.0,29.78,WNW,292,7.0,10.0,60,0.00,,,0.00,Rainwise IP-100,2013-11-12 05:56:00,
2013-11-12 01:01:00,51.2,38.0,29.78,WSW,247,2.0,9.0,60,0.00,,,0.00,Rainwise IP-100,2013-11-12 06:01:00,
2013-11-12 01:06:00,51.1,38.0,29.78,West,270,1.0,4.0,60,0.00,,,0.00,Rainwise IP-100,2013-11-12 06:06:00,
2013-11-12 01:11:00,50.9,38.0,29.78,South,180,4.0,6.0,61,0.00,,,0.00,Rainwise IP-100,2013-11-12 06:11:00,
2013-11-12 01:16:00,50.9,38.0,29.78,WSW,247,4.0,12.0,60,0.00,,,0.00,Rainwise IP-100,2013-11-12 06:16:00,
2013-11-12 01:22:00,50.9,38.0,29.78,WSW,247,3.0,7.0,60,0.00,,,0.00,Rainwise IP-100,2013-11-12 06:22:00,
2013-11-12 01:27:00,50.8,37.0,29.78,SSW,202,2.0,6.0,60,0.00,,,0.00,Rainwise IP-100,2013-11-12 06:27:00,
2013-11-12 01:32:00,50.8,38.0,29.78,WSW,247,3.0,6.0,62,0.00,,,0.00,Rainwise IP-100,2013-11-12 06:32:00,
2013-11-12 01:37:00,50.8,38.0,29.78,NE,45,0.0,7.0,62,0.00,,,0.00,Rainwise IP-100,2013-11-12 06:37:00,
2013-11-12 01:42:00,50.7,38.0,29.77,West,270,9.0,9.0,63,0.00,,,0.00,Rainwise IP-100,2013-11-12 06:42:00,
2013-11-12 01:47:00,50.7,38.0,29.77,West,270,8.0,10.0,63,0.00,,,0.00,Rainwise IP-100,2013-11-12 06:47:00,
2013-11-12 01:52:00,50.7,39.0,29.76,SW,225,2.0,9.0,64,0.00,,,0.00,Rainwise IP-100,2013-11-12 06:52:00,
2013-11-12 01:57:00,50.6,39.0,29.76,WSW,247,2.0,9.0,65,0.00,,,0.00,Rainwise IP-100,2013-11-12 06:57:00,
2013-11-12 02:02:00,50.5,39.0,29.76,West,270,4.0,6.0,65,0.00,,,0.00,Rainwise IP-100,2013-11-12 07:02:00,
2013-11-12 02:07:00,50.4,39.0,29.76,WSW,247,3.0,7.0,66,0.00,,,0.00,Rainwise IP-100,2013-11-12 07:07:00,
2013-11-12 02:12:00,50.3,39.0,29.76,WSW,247,1.0,7.0,66,0.00,,,0.00,Rainwise IP-100,2013-11-12 07:12:00,
2013-11-12 02:17:00,50.2,39.0,29.76,West,270,0.0,6.0,67,0.00,,,0.00,Rainwise IP-100,2013-11-12 07:17:00,
2013-11-12 02:22:00,50.1,39.0,29.76,West,270,1.0,6.0,67,0.00,,,0.00,Rainwise IP-100,2013-11-12 07:22:00,
2013-11-12 02:27:00,49.9,39.0,29.77,WSW,247,6.0,6.0,67,0.00,,,0.00,Rainwise IP-100,2013-11-12 07:27:00,
2013-11-12 02:32:00,49.9,39.0,29.76,WSW,247,2.0,7.0,68,0.00,,,0.00,Rainwise IP-100,2013-11-12 07:32:00,
2013-11-12 02:37:00,49.9,39.0,29.76,West,270,4.0,6.0,68,0.00,,,0.00,Rainwise IP-100,2013-11-12 07:37:00,
2013-11-12 02:42:00,49.9,39.0,29.76,WSW,247,4.0,7.0,68,0.00,,,0.00,Rainwise IP-100,2013-11-12 07:42:00,
2013-11-12 02:47:00,49.8,40.0,29.76,West,270,5.0,6.0,69,0.00,,,0.00,Rainwise IP-100,2013-11-12 07:47:00,
2013-11-12 02:52:00,49.8,40.0,29.76,SW,225,3.0,6.0,69,0.00,,,0.00,Rainwise IP-100,2013-11-12 07:52:00,
2013-11-12 02:57:00,49.7,40.0,29.76,West,270,4.0,6.0,69,0.00,,,0.00,Rainwise IP-100,2013-11-12 07:57:00,
2013-11-12 03:02:00,49.6,40.0,29.75,West,270,2.0,4.0,70,0.00,,,0.00,Rainwise IP-100,2013-11-12 08:02:00,
2013-11-12 03:07:00,49.4,40.0,29.76,West,270,4.0,5.0,70,0.00,,,0.00,Rainwise IP-100,2013-11-12 08:07:00,
2013-11-12 03:12:00,49.2,40.0,29.76,West,270,0.0,6.0,70,0.00,,,0.00,Rainwise IP-100,2013-11-12 08:12:00,
2013-11-12 03:17:00,49.0,40.0,29.75,West,270,6.0,6.0,72,0.00,,,0.00,Rainwise IP-100,2013-11-12 08:17:00,
2013-11-12 03:22:00,48.9,40.0,29.76,WSW,247,1.0,8.0,71,0.00,,,0.00,Rainwise IP-100,2013-11-12 08:22:00,
2013-11-12 03:27:00,48.9,40.0,29.76,West,270,6.0,6.0,70,0.00,,,0.00,Rainwise IP-100,2013-11-12 08:27:00,
2013-11-12 03:32:00,48.9,39.0,29.76,West,270,4.0,9.0,68,0.00,,,0.00,Rainwise IP-100,2013-11-12 08:32:00,
2013-11-12 03:37:00,48.9,39.0,29.76,West,270,2.0,7.0,68,0.00,,,0.00,Rainwise IP-100,2013-11-12 08:37:00,
2013-11-12 03:42:00,48.9,38.0,29.76,WSW,247,3.0,14.0,65,0.00,,,0.00,Rainwise IP-100,2013-11-12 08:42:00,
2013-11-12 03:47:00,48.9,37.0,29.76,West,270,6.0,13.0,63,0.00,,,0.00,Rainwise IP-100,2013-11-12 08:47:00,
2013-11-12 03:52:00,49.1,37.0,29.76,West,270,6.0,10.0,62,0.00,,,0.00,Rainwise IP-100,2013-11-12 08:52:00,
2013-11-12 03:57:00,49.0,37.0,29.76,West,270,3.0,12.0,62,0.00,,,0.00,Rainwise IP-100,2013-11-12 08:57:00,
2013-11-12 04:02:00,48.9,37.0,29.76,WSW,247,2.0,9.0,62,0.00,,,0.00,Rainwise IP-100,2013-11-12 09:02:00,
2013-11-12 04:07:00,48.9,37.0,29.76,NW,315,2.0,10.0,63,0.00,,,0.00,Rainwise IP-100,2013-11-12 09:07:00,
2013-11-12 04:12:00,48.8,37.0,29.76,West,270,7.0,7.0,63,0.00,,,0.00,Rainwise IP-100,2013-11-12 09:12:00,
2013-11-12 04:17:00,48.7,37.0,29.76,WSW,247,7.0,11.0,63,0.00,,,0.00,Rainwise IP-100,2013-11-12 09:17:00,
2013-11-12 04:22:00,48.7,37.0,29.76,West,270,6.0,11.0,63,0.00,,,0.00,Rainwise IP-100,2013-11-12 09:22:00,
2013-11-12 04:27:00,48.6,37.0,29.77,West,270,2.0,14.0,64,0.00,,,0.00,Rainwise IP-100,2013-11-12 09:27:00,
2013-11-12 04:32:00,48.4,37.0,29.77,West,270,6.0,13.0,66,0.00,,,0.00,Rainwise IP-100,2013-11-12 09:32:00,
2013-11-12 04:37:00,47.9,39.0,29.77,West,270,2.0,9.0,71,0.00,,,0.00,Rainwise IP-100,2013-11-12 09:37:00,
2013-11-12 04:42:00,47.4,39.0,29.77,West,270,7.0,7.0,72,0.00,,,0.00,Rainwise IP-100,2013-11-12 09:42:00,
2013-11-12 04:47:00,46.9,39.0,29.76,NW,315,0.0,7.0,76,0.00,,,0.00,Rainwise IP-100,2013-11-12 09:47:00,
2013-11-12 04:52:00,46.3,40.0,29.76,West,270,2.0,7.0,81,0.00,,,0.00,Rainwise IP-100,2013-11-12 09:52:00,
2013-11-12 04:57:00,45.7,41.0,29.76,WNW,292,6.0,7.0,85,0.00,,,0.00,Rainwise IP-100,2013-11-12 09:57:00,
2013-11-12 05:02:00,45.3,41.0,29.76,West,270,6.0,7.0,87,0.00,,,0.00,Rainwise IP-100,2013-11-12 10:02:00,
2013-11-12 05:07:00,44.7,43.0,29.76,SW,225,4.0,9.0,94,0.00,,,0.00,Rainwise IP-100,2013-11-12 10:07:00,
2013-11-12 05:12:00,44.3,43.0,29.77,West,270,3.0,7.0,97,0.00,,,0.00,Rainwise IP-100,2013-11-12 10:12:00,
2013-11-12 05:17:00,43.9,43.0,29.77,West,270,6.0,9.0,98,0.00,,,0.00,Rainwise IP-100,2013-11-12 10:17:00,
2013-11-12 05:22:00,43.8,44.0,29.77,West,270,2.0,9.0,100,0.00,,,0.00,Rainwise IP-100,2013-11-12 10:22:00,
2013-11-12 05:27:00,43.6,44.0,29.77,West,270,5.0,10.0,100,0.00,,,0.01,Rainwise IP-100,2013-11-12 10:27:00,
2013-11-12 05:32:00,43.5,44.0,29.77,West,270,2.0,6.0,100,0.06,,,0.01,Rainwise IP-100,2013-11-12 10:32:00,
2013-11-12 05:37:00,43.2,43.0,29.77,West,270,3.0,6.0,100,0.06,,,0.01,Rainwise IP-100,2013-11-12 10:37:00,
2013-11-12 05:42:00,43.1,43.0,29.77,SW,225,4.0,6.0,100,0.00,,,0.01,Rainwise IP-100,2013-11-12 10:42:00,
2013-11-12 05:47:00,42.9,43.0,29.77,West,270,1.0,7.0,100,0.00,,,0.01,Rainwise IP-100,2013-11-12 10:47:00,
2013-11-12 05:52:00,42.8,43.0,29.77,West,270,4.0,6.0,100,0.00,,,0.01,Rainwise IP-100,2013-11-12 10:52:00,
2013-11-12 05:57:00,42.7,43.0,29.78,West,270,3.0,7.0,100,0.00,,,0.01,Rainwise IP-100,2013-11-12 10:57:00,
2013-11-12 06:02:00,42.6,43.0,29.78,West,270,3.0,7.0,100,0.00,,,0.01,Rainwise IP-100,2013-11-12 11:02:00,
2013-11-12 06:07:00,42.5,43.0,29.78,West,270,2.0,7.0,100,0.06,,,0.02,Rainwise IP-100,2013-11-12 11:07:00,
2013-11-12 06:12:00,42.4,42.0,29.78,WSW,247,2.0,6.0,100,0.06,,,0.02,Rainwise IP-100,2013-11-12 11:12:00,
2013-11-12 06:17:00,42.3,42.0,29.78,WNW,292,3.0,6.0,100,0.00,,,0.02,Rainwise IP-100,2013-11-12 11:17:00,
2013-11-12 06:22:00,42.2,42.0,29.78,West,270,4.0,5.0,100,0.06,,,0.03,Rainwise IP-100,2013-11-12 11:22:00,
2013-11-12 06:27:00,42.1,42.0,29.79,WSW,247,2.0,10.0,100,0.06,,,0.03,Rainwise IP-100,2013-11-12 11:27:00,
2013-11-12 06:32:00,42.1,42.0,29.79,West,270,1.0,6.0,100,0.00,,,0.03,Rainwise IP-100,2013-11-12 11:32:00,
2013-11-12 06:37:00,41.9,42.0,29.79,West,270,1.0,5.0,100,0.00,,,0.03,Rainwise IP-100,2013-11-12 11:37:00,
2013-11-12 06:42:00,41.9,42.0,29.79,West,270,4.0,6.0,100,0.00,,,0.04,Rainwise IP-100,2013-11-12 11:42:00,
2013-11-12 06:47:00,41.8,42.0,29.79,West,270,4.0,6.0,100,0.06,,,0.04,Rainwise IP-100,2013-11-12 11:47:00,
2013-11-12 06:52:00,41.7,42.0,29.79,NW,315,2.0,9.0,100,0.06,,,0.04,Rainwise IP-100,2013-11-12 11:52:00,
2013-11-12 06:57:00,41.2,41.0,29.80,West,270,3.0,13.0,100,0.00,,,0.04,Rainwise IP-100,2013-11-12 11:57:00,
2013-11-12 07:02:00,40.8,41.0,29.80,West,270,4.0,12.0,100,0.00,,,0.04,Rainwise IP-100,2013-11-12 12:02:00,
2013-11-12 07:07:00,40.5,41.0,29.81,West,270,4.0,6.0,100,0.06,,,0.05,Rainwise IP-100,2013-11-12 12:07:00,
2013-11-12 07:12:00,40.2,40.0,29.81,West,270,1.0,6.0,100,0.06,,,0.05,Rainwise IP-100,2013-11-12 12:12:00,
2013-11-12 07:17:00,40.0,40.0,29.82,West,270,4.0,6.0,100,0.00,,,0.05,Rainwise IP-100,2013-11-12 12:17:00,
2013-11-12 07:22:00,39.8,40.0,29.81,West,270,6.0,7.0,100,0.06,,,0.06,Rainwise IP-100,2013-11-12 12:22:00,
2013-11-12 07:27:00,39.5,40.0,29.81,West,270,4.0,8.0,100,0.06,,,0.06,Rainwise IP-100,2013-11-12 12:27:00,
2013-11-12 07:32:00,39.2,39.0,29.81,West,270,3.0,8.0,100,0.00,,,0.06,Rainwise IP-100,2013-11-12 12:32:00,
2013-11-12 07:37:00,38.9,39.0,29.82,SW,225,4.0,7.0,100,0.00,,,0.06,Rainwise IP-100,2013-11-12 12:37:00,
2013-11-12 07:42:00,38.8,39.0,29.82,SW,225,2.0,7.0,100,0.00,,,0.06,Rainwise IP-100,2013-11-12 12:42:00,
2013-11-12 07:47:00,38.6,39.0,29.83,NNW,337,3.0,10.0,100,0.00,,,0.06,Rainwise IP-100,2013-11-12 12:47:00,
2013-11-12 07:52:00,38.5,39.0,29.83,West,270,3.0,6.0,100,0.06,,,0.07,Rainwise IP-100,2013-11-12 12:52:00,
2013-11-12 07:57:00,38.4,38.0,29.83,West,270,7.0,7.0,100,0.06,,,0.07,Rainwise IP-100,2013-11-12 12:57:00,
2013-11-12 08:02:00,38.2,38.0,29.84,West,270,5.0,11.0,100,0.00,,,0.07,Rainwise IP-100,2013-11-12 13:02:00,
2013-11-12 08:07:00,38.1,38.0,29.84,NW,315,3.0,9.0,100,0.06,,,0.08,Rainwise IP-100,2013-11-12 13:07:00,
2013-11-12 08:12:00,37.9,38.0,29.83,NNW,337,2.0,10.0,100,0.06,,,0.08,Rainwise IP-100,2013-11-12 13:12:00,
2013-11-12 08:17:00,37.8,38.0,29.83,West,270,6.0,10.0,100,0.06,,,0.09,Rainwise IP-100,2013-11-12 13:17:00,
2013-11-12 08:22:00,37.6,38.0,29.84,WNW,292,5.0,12.0,100,0.06,,,0.09,Rainwise IP-100,2013-11-12 13:22:00,
2013-11-12 08:27:00,37.3,37.0,29.84,NW,315,5.0,10.0,100,0.06,,,0.10,Rainwise IP-100,2013-11-12 13:27:00,
2013-11-12 08:32:00,36.6,37.0,29.84,West,270,4.0,7.0,100,0.06,,,0.10,Rainwise IP-100,2013-11-12 13:32:00,
2013-11-12 08:37:00,35.7,36.0,29.85,WNW,292,2.0,10.0,100,0.06,,,0.11,Rainwise IP-100,2013-11-12 13:37:00,
2013-11-12 08:42:00,34.9,35.0,29.85,NW,315,1.0,9.0,100,0.06,,,0.11,Rainwise IP-100,2013-11-12 13:42:00,
2013-11-12 08:47:00,34.5,35.0,29.86,North,360,6.0,8.0,100,0.00,,,0.11,Rainwise IP-100,2013-11-12 13:47:00,
2013-11-12 08:52:00,33.9,35.0,29.86,West,270,2.0,10.0,100,0.00,,,0.11,Rainwise IP-100,2013-11-12 13:52:00,
2013-11-12 08:57:00,33.7,35.0,29.85,NW,315,5.0,13.0,100,0.00,,,0.11,Rainwise IP-100,2013-11-12 13:57:00,
2013-11-12 09:02:00,33.5,35.0,29.86,West,270,1.0,9.0,100,0.00,,,0.11,Rainwise IP-100,2013-11-12 14:02:00,
2013-11-12 09:07:00,33.3,33.0,29.86,North,360,5.0,7.0,100,0.00,,,0.11,Rainwise IP-100,2013-11-12 14:07:00,
2013-11-12 09:12:00,33.1,33.0,29.86,WNW,292,2.0,10.0,100,0.06,,,0.12,Rainwise IP-100,2013-11-12 14:12:00,
2013-11-12 09:17:00,32.9,33.0,29.86,West,270,2.0,10.0,100,0.06,,,0.12,Rainwise IP-100,2013-11-12 14:17:00,
2013-11-12 09:22:00,32.4,32.0,29.86,NW,315,2.0,10.0,100,0.00,,,0.12,Rainwise IP-100,2013-11-12 14:22:00,
2013-11-12 09:27:00,32.2,32.0,29.86,WNW,292,4.0,7.0,100,0.00,,,0.12,Rainwise IP-100,2013-11-12 14:27:00,
2013-11-12 09:32:00,31.9,32.0,29.86,SW,225,2.0,11.0,100,0.00,,,0.12,Rainwise IP-100,2013-11-12 14:32:00,
2013-11-12 09:37:00,31.9,32.0,29.86,West,270,3.0,9.0,100,0.00,,,0.12,Rainwise IP-100,2013-11-12 14:37:00,
2013-11-12 09:42:00,31.7,32.0,29.86,NW,315,0.0,8.0,100,0.00,,,0.12,Rainwise IP-100,2013-11-12 14:42:00,
2013-11-12 09:47:00,31.7,32.0,29.86,NW,315,0.0,7.0,100,0.00,,,0.12,Rainwise IP-100,2013-11-12 14:47:00,
2013-11-12 09:52:00,31.6,32.0,29.86,NNW,337,4.0,7.0,100,0.00,,,0.12,Rainwise IP-100,2013-11-12 14:52:00,
2013-11-12 09:57:00,31.6,32.0,29.86,NNW,337,0.0,7.0,100,0.00,,,0.12,Rainwise IP-100,2013-11-12 14:57:00,
2013-11-12 10:02:00,31.5,32.0,29.86,NW,315,0.0,4.0,100,0.00,,,0.12,Rainwise IP-100,2013-11-12 15:02:00,
2013-11-12 10:07:00,31.5,32.0,29.86,West,270,2.0,6.0,100,0.00,,,0.12,Rainwise IP-100,2013-11-12 15:07:00,
2013-11-12 10:12:00,31.5,32.0,29.86,WSW,247,0.0,7.0,100,0.00,,,0.12,Rainwise IP-100,2013-11-12 15:12:00,
2013-11-12 10:17:00,31.5,32.0,29.86,NNW,337,1.0,10.0,100,0.00,,,0.12,Rainwise IP-100,2013-11-12 15:17:00,
2013-11-12 10:22:00,31.5,32.0,29.86,WSW,247,3.0,5.0,100,0.00,,,0.12,Rainwise IP-100,2013-11-12 15:22:00,
2013-11-12 10:27:00,31.4,31.0,29.85,NW,315,4.0,9.0,100,0.00,,,0.12,Rainwise IP-100,2013-11-12 15:27:00,
2013-11-12 10:32:00,31.5,32.0,29.86,NNW,337,3.0,7.0,100,0.00,,,0.12,Rainwise IP-100,2013-11-12 15:32:00,
2013-11-12 10:37:00,31.6,32.0,29.86,SW,225,5.0,7.0,100,0.00,,,0.12,Rainwise IP-100,2013-11-12 15:37:00,
2013-11-12 10:42:00,31.8,32.0,29.85,North,360,0.0,8.0,100,0.06,,,0.13,Rainwise IP-100,2013-11-12 15:42:00,
2013-11-12 10:47:00,31.9,32.0,29.85,West,270,3.0,5.0,100,0.06,,,0.13,Rainwise IP-100,2013-11-12 15:47:00,
2013-11-12 10:52:00,32.0,32.0,29.85,West,270,0.0,4.0,100,0.00,,,0.13,Rainwise IP-100,2013-11-12 15:52:00,
2013-11-12 10:57:00,32.2,32.0,29.85,West,270,0.0,2.0,100,0.00,,,0.13,Rainwise IP-100,2013-11-12 15:57:00,
2013-11-12 11:02:00,32.3,32.0,29.85,West,270,1.0,4.0,100,0.00,,,0.13,Rainwise IP-100,2013-11-12 16:02:00,
2013-11-12 11:07:00,32.3,32.0,29.85,SW,225,8.0,8.0,100,0.00,,,0.13,Rainwise IP-100,2013-11-12 16:07:00,
2013-11-12 11:12:00,32.2,32.0,29.85,NE,45,1.0,14.0,100,0.00,,,0.13,Rainwise IP-100,2013-11-12 16:12:00,
2013-11-12 11:17:00,32.5,33.0,29.85,NW,315,1.0,5.0,100,0.00,,,0.13,Rainwise IP-100,2013-11-12 16:17:00,
2013-11-12 11:22:00,32.6,33.0,29.85,WSW,247,3.0,5.0,100,0.00,,,0.13,Rainwise IP-100,2013-11-12 16:22:00,
2013-11-12 11:27:00,32.6,33.0,29.85,West,270,6.0,8.0,100,0.00,,,0.13,Rainwise IP-100,2013-11-12 16:27:00,
2013-11-12 11:32:00,32.7,33.0,29.85,WNW,292,3.0,9.0,100,0.00,,,0.13,Rainwise IP-100,2013-11-12 16:32:00,
2013-11-12 11:37:00,32.6,33.0,29.85,NW,315,9.0,12.0,100,0.00,,,0.13,Rainwise IP-100,2013-11-12 16:37:00,
2013-11-12 11:42:00,32.4,32.0,29.85,West,270,0.0,9.0,100,0.00,,,0.13,Rainwise IP-100,2013-11-12 16:42:00,
2013-11-12 11:47:00,32.3,32.0,29.85,West,270,0.0,6.0,100,0.00,,,0.13,Rainwise IP-100,2013-11-12 16:47:00,
2013-11-12 11:52:00,32.3,32.0,29.85,West,270,1.0,5.0,100,0.00,,,0.13,Rainwise IP-100,2013-11-12 16:52:00,
2013-11-12 11:57:00,32.3,32.0,29.85,West,270,5.0,6.0,100,0.00,,,0.13,Rainwise IP-100,2013-11-12 16:57:00,
2013-11-12 12:02:00,32.2,32.0,29.85,West,270,0.0,6.0,100,0.00,,,0.13,Rainwise IP-100,2013-11-12 17:02:00,
2013-11-12 12:07:00,32.1,32.0,29.85,NW,315,4.0,7.0,100,0.00,,,0.13,Rainwise IP-100,2013-11-12 17:07:00,
2013-11-12 12:12:00,32.3,32.0,29.84,West,270,3.0,7.0,100,0.00,,,0.13,Rainwise IP-100,2013-11-12 17:12:00,
2013-11-12 12:17:00,32.4,32.0,29.84,SE,135,1.0,9.0,100,0.00,,,0.13,Rainwise IP-100,2013-11-12 17:17:00,
2013-11-12 12:22:00,32.5,33.0,29.84,East,90,0.0,6.0,98,0.00,,,0.13,Rainwise IP-100,2013-11-12 17:22:00,
2013-11-12 12:27:00,32.7,33.0,29.84,East,90,0.0,0.0,100,0.00,,,0.13,Rainwise IP-100,2013-11-12 17:27:00,
2013-11-12 12:32:00,32.8,33.0,29.84,North,360,1.0,4.0,100,0.00,,,0.13,Rainwise IP-100,2013-11-12 17:32:00,
2013-11-12 12:37:00,32.9,33.0,29.84,NW,315,0.0,6.0,100,0.00,,,0.13,Rainwise IP-100,2013-11-12 17:37:00,
2013-11-12 12:42:00,33.1,33.0,29.84,NW,315,2.0,6.0,100,0.00,,,0.13,Rainwise IP-100,2013-11-12 17:42:00,
2013-11-12 12:47:00,33.3,33.0,29.84,NW,315,0.0,3.0,100,0.00,,,0.13,Rainwise IP-100,2013-11-12 17:47:00,
2013-11-12 12:52:00,33.4,33.0,29.84,SW,225,0.0,2.0,100,0.00,,,0.13,Rainwise IP-100,2013-11-12 17:52:00,
2013-11-12 12:57:00,33.5,35.0,29.84,West,270,1.0,4.0,100,0.00,,,0.13,Rainwise IP-100,2013-11-12 17:57:00,
2013-11-12 13:02:00,33.5,35.0,29.84,NW,315,1.0,7.0,100,0.00,,,0.13,Rainwise IP-100,2013-11-12 18:02:00,
2013-11-12 13:07:00,33.7,35.0,29.84,NW,315,3.0,3.0,100,0.00,,,0.13,Rainwise IP-100,2013-11-12 18:07:00,
2013-11-12 13:12:00,33.6,32.0,29.84,NE,45,4.0,6.0,92,0.00,,,0.13,Rainwise IP-100,2013-11-12 18:12:00,
2013-11-12 13:17:00,33.8,35.0,29.85,NE,45,1.0,6.0,100,0.00,,,0.13,Rainwise IP-100,2013-11-12 18:17:00,
2013-11-12 13:22:00,33.8,35.0,29.85,NW,315,0.0,6.0,99,0.00,,,0.13,Rainwise IP-100,2013-11-12 18:22:00,
2013-11-12 13:27:00,33.9,35.0,29.85,NW,315,0.0,2.0,100,0.00,,,0.13,Rainwise IP-100,2013-11-12 18:27:00,
2013-11-12 13:32:00,34.0,35.0,29.85,NW,315,0.0,4.0,100,0.00,,,0.13,Rainwise IP-100,2013-11-12 18:32:00,
2013-11-12 13:37:00,34.1,33.0,29.85,West,270,1.0,4.0,97,0.00,,,0.13,Rainwise IP-100,2013-11-12 18:37:00,
2013-11-12 13:42:00,34.2,35.0,29.85,WNW,292,0.0,5.0,98,0.00,,,0.13,Rainwise IP-100,2013-11-12 18:42:00,
2013-11-12 13:47:00,34.3,35.0,29.85,NW,315,3.0,4.0,100,0.00,,,0.13,Rainwise IP-100,2013-11-12 18:47:00,
2013-11-12 13:52:00,34.4,35.0,29.86,South,180,1.0,6.0,98,0.00,,,0.13,Rainwise IP-100,2013-11-12 18:52:00,
2013-11-12 13:57:00,34.3,29.0,29.86,West,270,5.0,7.0,82,0.00,,,0.13,Rainwise IP-100,2013-11-12 18:57:00,
2013-11-12 14:02:00,34.3,31.0,29.86,WNW,292,1.0,6.0,87,0.00,,,0.13,Rainwise IP-100,2013-11-12 19:02:00,
2013-11-12 14:07:00,34.4,32.0,29.86,WSW,247,0.0,6.0,91,0.00,,,0.13,Rainwise IP-100,2013-11-12 19:07:00,
2013-11-12 14:12:00,34.3,31.0,29.86,WNW,292,3.0,8.0,86,0.00,,,0.13,Rainwise IP-100,2013-11-12 19:12:00,
2013-11-12 14:17:00,34.3,31.0,29.87,NNW,337,2.0,10.0,83,0.00,,,0.13,Rainwise IP-100,2013-11-12 19:17:00,
2013-11-12 14:22:00,34.2,29.0,29.87,WNW,292,3.0,9.0,81,0.00,,,0.13,Rainwise IP-100,2013-11-12 19:22:00,
2013-11-12 14:27:00,34.2,31.0,29.87,NW,315,4.0,7.0,84,0.00,,,0.13,Rainwise IP-100,2013-11-12 19:27:00,
2013-11-12 14:32:00,34.1,28.0,29.88,NNW,337,2.0,9.0,76,0.00,,,0.13,Rainwise IP-100,2013-11-12 19:32:00,
2013-11-12 14:37:00,34.1,29.0,29.87,WSW,247,1.0,7.0,79,0.00,,,0.13,Rainwise IP-100,2013-11-12 19:37:00,
2013-11-12 14:42:00,33.9,26.0,29.87,NW,315,5.0,7.0,72,0.00,,,0.13,Rainwise IP-100,2013-11-12 19:42:00,
2013-11-12 14:47:00,33.8,26.0,29.88,West,270,5.0,9.0,69,0.00,,,0.13,Rainwise IP-100,2013-11-12 19:47:00,
2013-11-12 14:52:00,33.8,26.0,29.87,WNW,292,0.0,6.0,69,0.00,,,0.13,Rainwise IP-100,2013-11-12 19:52:00,
2013-11-12 14:57:00,33.8,26.0,29.88,West,270,0.0,7.0,71,0.00,,,0.13,Rainwise IP-100,2013-11-12 19:57:00,
2013-11-12 15:02:00,33.7,26.0,29.88,NW,315,1.0,6.0,71,0.00,,,0.13,Rainwise IP-100,2013-11-12 20:02:00,
2013-11-12 15:07:00,33.6,24.0,29.88,NW,315,1.0,6.0,66,0.00,,,0.13,Rainwise IP-100,2013-11-12 20:07:00,
2013-11-12 15:12:00,33.6,26.0,29.89,West,270,1.0,8.0,69,0.00,,,0.13,Rainwise IP-100,2013-11-12 20:12:00,
2013-11-12 15:17:00,33.6,26.0,29.89,WNW,292,4.0,6.0,71,0.00,,,0.13,Rainwise IP-100,2013-11-12 20:17:00,
2013-11-12 15:22:00,33.6,26.0,29.89,NNW,337,1.0,10.0,68,0.00,,,0.13,Rainwise IP-100,2013-11-12 20:22:00,
2013-11-12 15:27:00,33.6,26.0,29.89,NW,315,0.0,3.0,69,0.00,,,0.13,Rainwise IP-100,2013-11-12 20:27:00,
2013-11-12 15:32:00,33.6,26.0,29.89,NNW,337,0.0,5.0,72,0.00,,,0.13,Rainwise IP-100,2013-11-12 20:32:00,
2013-11-12 15:37:00,33.5,26.0,29.90,WSW,247,1.0,6.0,69,0.00,,,0.13,Rainwise IP-100,2013-11-12 20:37:00,
2013-11-12 15:42:00,33.4,24.0,29.89,West,270,1.0,5.0,71,0.00,,,0.13,Rainwise IP-100,2013-11-12 20:42:00,
2013-11-12 15:47:00,33.3,26.0,29.89,NW,315,0.0,5.0,72,0.00,,,0.13,Rainwise IP-100,2013-11-12 20:47:00,
2013-11-12 15:52:00,33.2,24.0,29.90,NNW,337,3.0,3.0,71,0.00,,,0.13,Rainwise IP-100,2013-11-12 20:52:00,
2013-11-12 15:57:00,33.1,24.0,29.90,NW,315,3.0,6.0,70,0.00,,,0.13,Rainwise IP-100,2013-11-12 20:57:00,
2013-11-12 16:02:00,32.9,24.0,29.90,NW,315,1.0,6.0,69,0.00,,,0.13,Rainwise IP-100,2013-11-12 21:02:00,
2013-11-12 16:07:00,32.9,24.0,29.90,NNW,337,3.0,5.0,68,0.00,,,0.13,Rainwise IP-100,2013-11-12 21:07:00,
2013-11-12 16:12:00,32.8,24.0,29.90,NW,315,0.0,6.0,69,0.00,,,0.13,Rainwise IP-100,2013-11-12 21:12:00,
2013-11-12 16:17:00,32.8,24.0,29.91,NW,315,6.0,7.0,66,0.00,,,0.13,Rainwise IP-100,2013-11-12 21:17:00,
2013-11-12 16:22:00,32.7,24.0,29.91,NW,315,2.0,6.0,66,0.00,,,0.13,Rainwise IP-100,2013-11-12 21:22:00,
2013-11-12 16:27:00,32.6,24.0,29.91,North,360,4.0,10.0,66,0.00,,,0.13,Rainwise IP-100,2013-11-12 21:27:00,
2013-11-12 16:32:00,32.6,24.0,29.91,NNW,337,0.0,12.0,67,0.00,,,0.13,Rainwise IP-100,2013-11-12 21:32:00,
2013-11-12 16:37:00,32.5,24.0,29.91,WNW,292,0.0,6.0,67,0.00,,,0.13,Rainwise IP-100,2013-11-12 21:37:00,
2013-11-12 16:42:00,32.3,23.0,29.91,West,270,2.0,9.0,68,0.00,,,0.13,Rainwise IP-100,2013-11-12 21:42:00,
2013-11-12 16:47:00,32.2,23.0,29.92,West,270,4.0,7.0,66,0.00,,,0.13,Rainwise IP-100,2013-11-12 21:47:00,
2013-11-12 16:52:00,32.2,23.0,29.92,West,270,6.0,11.0,67,0.00,,,0.13,Rainwise IP-100,2013-11-12 21:52:00,
2013-11-12 16:57:00,32.1,23.0,29.92,WNW,292,7.0,7.0,65,0.00,,,0.13,Rainwise IP-100,2013-11-12 21:57:00,
2013-11-12 17:02:00,31.9,23.0,29.92,NNW,337,1.0,7.0,67,0.00,,,0.13,Rainwise IP-100,2013-11-12 22:02:00,
2013-11-12 17:07:00,31.9,23.0,29.92,West,270,4.0,6.0,66,0.00,,,0.13,Rainwise IP-100,2013-11-12 22:07:00,
2013-11-12 17:12:00,31.9,23.0,29.92,WNW,292,0.0,6.0,65,0.00,,,0.13,Rainwise IP-100,2013-11-12 22:12:00,
2013-11-12 17:17:00,31.8,23.0,29.92,North,360,1.0,4.0,68,0.00,,,0.13,Rainwise IP-100,2013-11-12 22:17:00,
2013-11-12 17:22:00,31.7,23.0,29.92,NW,315,1.0,2.0,68,0.00,,,0.13,Rainwise IP-100,2013-11-12 22:22:00,
2013-11-12 17:27:00,31.5,23.0,29.92,West,270,1.0,3.0,68,0.00,,,0.13,Rainwise IP-100,2013-11-12 22:27:00,
2013-11-12 17:32:00,31.4,23.0,29.93,North,360,4.0,6.0,69,0.00,,,0.13,Rainwise IP-100,2013-11-12 22:32:00,
2013-11-12 17:37:00,31.2,23.0,29.93,NW,315,0.0,6.0,68,0.00,,,0.13,Rainwise IP-100,2013-11-12 22:37:00,
2013-11-12 17:42:00,31.1,23.0,29.93,WNW,292,0.0,4.0,68,0.00,,,0.13,Rainwise IP-100,2013-11-12 22:42:00,
2013-11-12 17:47:00,31.0,23.0,29.93,WNW,292,2.0,4.0,69,0.00,,,0.13,Rainwise IP-100,2013-11-12 22:47:00,
2013-11-12 17:52:00,30.9,23.0,29.93,West,270,1.0,6.0,71,0.00,,,0.13,Rainwise IP-100,2013-11-12 22:52:00,
2013-11-12 17:57:00,30.7,23.0,29.93,West,270,1.0,4.0,71,0.00,,,0.13,Rainwise IP-100,2013-11-12 22:57:00,
2013-11-12 18:02:00,30.6,23.0,29.93,WSW,247,3.0,3.0,71,0.00,,,0.13,Rainwise IP-100,2013-11-12 23:02:00,
2013-11-12 18:07:00,30.6,23.0,29.94,WSW,247,2.0,4.0,72,0.00,,,0.13,Rainwise IP-100,2013-11-12 23:07:00,
2013-11-12 18:12:00,30.5,23.0,29.93,WSW,247,0.0,4.0,72,0.00,,,0.13,Rainwise IP-100,2013-11-12 23:12:00,
2013-11-12 18:17:00,30.4,23.0,29.94,WSW,247,0.0,4.0,72,0.00,,,0.13,Rainwise IP-100,2013-11-12 23:17:00,
2013-11-12 18:22:00,30.4,23.0,29.93,WSW,247,1.0,4.0,72,0.00,,,0.13,Rainwise IP-100,2013-11-12 23:22:00,
2013-11-12 18:27:00,30.3,23.0,29.93,WSW,247,0.0,3.0,72,0.00,,,0.13,Rainwise IP-100,2013-11-12 23:27:00,
2013-11-12 18:32:00,30.2,23.0,29.94,WSW,247,0.0,3.0,72,0.00,,,0.13,Rainwise IP-100,2013-11-12 23:32:00,
2013-11-12 18:37:00,30.1,23.0,29.94,WSW,247,0.0,4.0,73,0.00,,,0.13,Rainwise IP-100,2013-11-12 23:37:00,
2013-11-12 18:42:00,30.1,24.0,29.94,WSW,247,3.0,3.0,75,0.00,,,0.13,Rainwise IP-100,2013-11-12 23:42:00,
2013-11-12 18:47:00,29.9,24.0,29.94,WSW,247,3.0,4.0,75,0.00,,,0.13,Rainwise IP-100,2013-11-12 23:47:00,
2013-11-12 18:52:00,29.9,24.0,29.94,WSW,247,2.0,5.0,76,0.00,,,0.13,Rainwise IP-100,2013-11-12 23:52:00,
2013-11-12 18:57:00,29.8,24.0,29.94,WSW,247,2.0,3.0,76,0.00,,,0.13,Rainwise IP-100,2013-11-12 23:57:00,
2013-11-12 19:02:00,29.8,24.0,29.94,WSW,247,3.0,6.0,77,0.00,,,0.13,Rainwise IP-100,2013-11-13 00:02:00,
2013-11-12 19:07:00,29.7,24.0,29.94,WSW,247,1.0,6.0,76,0.00,,,0.13,Rainwise IP-100,2013-11-13 00:07:00,
2013-11-12 19:12:00,29.7,24.0,29.94,WSW,247,2.0,3.0,76,0.00,,,0.13,Rainwise IP-100,2013-11-13 00:12:00,
2013-11-12 19:17:00,29.7,24.0,29.94,WSW,247,2.0,4.0,75,0.00,,,0.13,Rainwise IP-100,2013-11-13 00:17:00,
2013-11-12 19:22:00,29.7,24.0,29.94,WSW,247,1.0,5.0,76,0.00,,,0.13,Rainwise IP-100,2013-11-13 00:22:00,
2013-11-12 19:27:00,29.6,24.0,29.94,WSW,247,0.0,4.0,76,0.00,,,0.13,Rainwise IP-100,2013-11-13 00:27:00,
2013-11-12 19:32:00,29.5,24.0,29.94,WSW,247,1.0,3.0,76,0.00,,,0.13,Rainwise IP-100,2013-11-13 00:32:00,
2013-11-12 19:37:00,29.5,24.0,29.94,WSW,247,1.0,4.0,77,0.00,,,0.13,Rainwise IP-100,2013-11-13 00:37:00,
2013-11-12 19:42:00,29.5,24.0,29.94,WSW,247,3.0,3.0,78,0.00,,,0.13,Rainwise IP-100,2013-11-13 00:42:00,
2013-11-12 19:47:00,29.4,23.0,29.94,WSW,247,1.0,4.0,77,0.00,,,0.13,Rainwise IP-100,2013-11-13 00:47:00,
2013-11-12 19:52:00,29.3,23.0,29.94,WSW,247,1.0,3.0,77,0.00,,,0.13,Rainwise IP-100,2013-11-13 00:52:00,
2013-11-12 19:57:00,29.3,23.0,29.95,WSW,247,0.0,3.0,78,0.00,,,0.13,Rainwise IP-100,2013-11-13 00:57:00,
2013-11-12 20:02:00,29.2,23.0,29.95,WSW,247,1.0,3.0,78,0.00,,,0.13,Rainwise IP-100,2013-11-13 01:02:00,
2013-11-12 20:07:00,29.2,23.0,29.95,WSW,247,2.0,2.0,78,0.00,,,0.13,Rainwise IP-100,2013-11-13 01:07:00,
2013-11-12 20:12:00,29.2,23.0,29.95,West,270,3.0,6.0,77,0.00,,,0.13,Rainwise IP-100,2013-11-13 01:12:00,
2013-11-12 20:17:00,29.3,23.0,29.95,West,270,4.0,6.0,77,0.00,,,0.13,Rainwise IP-100,2013-11-13 01:17:00,
2013-11-12 20:22:00,29.4,23.0,29.95,West,270,5.0,5.0,76,0.00,,,0.13,Rainwise IP-100,2013-11-13 01:22:00,
2013-11-12 20:27:00,29.5,24.0,29.95,WNW,292,0.0,5.0,75,0.00,,,0.13,Rainwise IP-100,2013-11-13 01:27:00,
2013-11-12 20:32:00,29.5,24.0,29.96,WNW,292,0.0,7.0,74,0.00,,,0.13,Rainwise IP-100,2013-11-13 01:32:00,
2013-11-12 20:37:00,29.5,24.0,29.96,WSW,247,1.0,4.0,75,0.00,,,0.13,Rainwise IP-100,2013-11-13 01:37:00,
2013-11-12 20:42:00,29.5,24.0,29.96,West,270,3.0,5.0,75,0.00,,,0.13,Rainwise IP-100,2013-11-13 01:42:00,
2013-11-12 20:47:00,29.5,24.0,29.96,West,270,3.0,6.0,75,0.00,,,0.13,Rainwise IP-100,2013-11-13 01:47:00,
2013-11-12 20:52:00,29.5,24.0,29.96,West,270,1.0,9.0,74,0.00,,,0.13,Rainwise IP-100,2013-11-13 01:52:00,
2013-11-12 20:57:00,29.7,23.0,29.96,West,270,0.0,9.0,71,0.00,,,0.13,Rainwise IP-100,2013-11-13 01:57:00,
2013-11-12 21:02:00,29.7,23.0,29.96,West,270,6.0,6.0,72,0.00,,,0.13,Rainwise IP-100,2013-11-13 02:02:00,
2013-11-12 21:07:00,29.8,23.0,29.96,WNW,292,3.0,8.0,69,0.00,,,0.13,Rainwise IP-100,2013-11-13 02:07:00,
2013-11-12 21:12:00,29.9,23.0,29.96,NW,315,6.0,6.0,72,0.00,,,0.13,Rainwise IP-100,2013-11-13 02:12:00,
2013-11-12 21:17:00,29.9,23.0,29.96,NW,315,3.0,7.0,70,0.00,,,0.13,Rainwise IP-100,2013-11-13 02:17:00,
2013-11-12 21:22:00,29.9,23.0,29.96,West,270,1.0,6.0,70,0.00,,,0.13,Rainwise IP-100,2013-11-13 02:22:00,
2013-11-12 21:27:00,29.9,21.0,29.96,NW,315,5.0,6.0,67,0.00,,,0.13,Rainwise IP-100,2013-11-13 02:27:00,
2013-11-12 21:32:00,29.9,21.0,29.96,WNW,292,0.0,7.0,67,0.00,,,0.13,Rainwise IP-100,2013-11-13 02:32:00,
2013-11-12 21:37:00,29.9,21.0,29.96,West,270,4.0,7.0,67,0.00,,,0.13,Rainwise IP-100,2013-11-13 02:37:00,
2013-11-12 21:42:00,29.9,23.0,29.96,West,270,7.0,8.0,68,0.00,,,0.13,Rainwise IP-100,2013-11-13 02:42:00,
2013-11-12 21:47:00,29.9,21.0,29.96,WSW,247,1.0,8.0,66,0.00,,,0.13,Rainwise IP-100,2013-11-13 02:47:00,
2013-11-12 21:52:00,29.8,21.0,29.96,WNW,292,0.0,10.0,66,0.00,,,0.13,Rainwise IP-100,2013-11-13 02:52:00,
2013-11-12 21:57:00,29.7,21.0,29.96,NW,315,1.0,12.0,65,0.00,,,0.13,Rainwise IP-100,2013-11-13 02:57:00,
2013-11-12 22:02:00,29.5,21.0,29.96,North,360,3.0,8.0,65,0.00,,,0.13,Rainwise IP-100,2013-11-13 03:02:00,
2013-11-12 22:07:00,29.5,21.0,29.96,West,270,2.0,7.0,66,0.00,,,0.13,Rainwise IP-100,2013-11-13 03:07:00,
2013-11-12 22:12:00,29.4,21.0,29.96,NNW,337,1.0,6.0,67,0.00,,,0.13,Rainwise IP-100,2013-11-13 03:12:00,
2013-11-12 22:17:00,29.2,21.0,29.97,WSW,247,0.0,7.0,66,0.00,,,0.13,Rainwise IP-100,2013-11-13 03:17:00,
2013-11-12 22:22:00,29.0,21.0,29.97,WNW,292,3.0,6.0,67,0.00,,,0.13,Rainwise IP-100,2013-11-13 03:22:00,
2013-11-12 22:27:00,28.9,21.0,29.97,North,360,2.0,8.0,66,0.00,,,0.13,Rainwise IP-100,2013-11-13 03:27:00,
2013-11-12 22:32:00,28.8,21.0,29.96,WNW,292,4.0,9.0,67,0.00,,,0.13,Rainwise IP-100,2013-11-13 03:32:00,
2013-11-12 22:37:00,28.7,21.0,29.96,NW,315,1.0,8.0,66,0.00,,,0.13,Rainwise IP-100,2013-11-13 03:37:00,
2013-11-12 22:42:00,28.6,21.0,29.96,NW,315,3.0,6.0,68,0.00,,,0.13,Rainwise IP-100,2013-11-13 03:42:00,
2013-11-12 22:47:00,28.4,18.0,29.96,West,270,1.0,7.0,68,0.00,,,0.13,Rainwise IP-100,2013-11-13 03:47:00,
2013-11-12 22:52:00,28.3,18.0,29.97,WNW,292,4.0,8.0,67,0.00,,,0.13,Rainwise IP-100,2013-11-13 03:52:00,
2013-11-12 22:57:00,28.2,18.0,29.97,WNW,292,2.0,6.0,67,0.00,,,0.13,Rainwise IP-100,2013-11-13 03:57:00,
2013-11-12 23:02:00,28.2,18.0,29.97,WNW,292,6.0,13.0,66,0.00,,,0.13,Rainwise IP-100,2013-11-13 04:02:00,
2013-11-12 23:07:00,28.1,18.0,29.97,North,360,2.0,7.0,67,0.00,,,0.13,Rainwise IP-100,2013-11-13 04:07:00,
2013-11-12 23:12:00,28.1,18.0,29.97,WNW,292,4.0,13.0,66,0.00,,,0.13,Rainwise IP-100,2013-11-13 04:12:00,
2013-11-12 23:17:00,27.9,18.0,29.96,West,270,2.0,8.0,66,0.00,,,0.13,Rainwise IP-100,2013-11-13 04:17:00,
2013-11-12 23:22:00,27.9,18.0,29.96,NW,315,4.0,6.0,67,0.00,,,0.13,Rainwise IP-100,2013-11-13 04:22:00,
2013-11-12 23:27:00,27.7,18.0,29.96,NNW,337,1.0,6.0,66,0.00,,,0.13,Rainwise IP-100,2013-11-13 04:27:00,
2013-11-12 23:32:00,27.5,18.0,29.96,West,270,3.0,7.0,67,0.00,,,0.13,Rainwise IP-100,2013-11-13 04:32:00,
2013-11-12 23:37:00,27.4,18.0,29.96,NW,315,2.0,5.0,68,0.00,,,0.13,Rainwise IP-100,2013-11-13 04:37:00,
2013-11-12 23:42:00,27.3,18.0,29.96,West,270,5.0,6.0,68,0.00,,,0.13,Rainwise IP-100,2013-11-13 04:42:00,
2013-11-12 23:47:00,27.1,18.0,29.96,West,270,0.0,7.0,68,0.00,,,0.13,Rainwise IP-100,2013-11-13 04:47:00,
2013-11-12 23:52:00,27.0,18.0,29.96,WSW,247,5.0,9.0,68,0.00,,,0.13,Rainwise IP-100,2013-11-13 04:52:00,
2013-11-12 23:57:00,27.0,21.0,29.96,WNW,292,2.0,7.0,70,0.00,,,0.13,Rainwise IP-100,2013-11-13 04:57:00,